createdAt,value
2018-03-02T00:02:12.508Z,-10.60
2018-03-02T00:04:39.751Z,-10.50
2018-03-02T00:07:07.530Z,-10.70
2018-03-02T00:09:34.405Z,-10.70
2018-03-02T00:12:01.282Z,-10.70
2018-03-02T00:14:27.755Z,-10.50
2018-03-02T00:16:54.576Z,-10.60
2018-03-02T00:19:21.001Z,-10.60
2018-03-02T00:21:47.806Z,-10.80
2018-03-02T00:24:14.993Z,-10.60
2018-03-02T00:26:41.454Z,-10.60
2018-03-02T00:29:09.688Z,-10.70
2018-03-02T00:31:36.645Z,-10.80
2018-03-02T00:34:03.534Z,-11.00
2018-03-02T00:36:30.240Z,-11.00
2018-03-02T00:38:57.174Z,-10.90
2018-03-02T00:41:24.820Z,-11.00
2018-03-02T00:43:52.733Z,-11.00
2018-03-02T00:46:19.956Z,-11.10
2018-03-02T00:48:47.168Z,-11.50
2018-03-02T00:51:14.158Z,-11.30
2018-03-02T00:53:41.093Z,-11.40
2018-03-02T00:56:08.269Z,-11.30
2018-03-02T00:58:35.827Z,-11.40
2018-03-02T01:01:03.172Z,-11.20
2018-03-02T01:03:30.614Z,-11.30
2018-03-02T01:05:57.390Z,-11.20
2018-03-02T01:08:24.347Z,-11.40
2018-03-02T01:10:51.298Z,-11.60
2018-03-02T01:13:19.006Z,-11.40
2018-03-02T01:15:45.459Z,-11.50
2018-03-02T01:18:12.317Z,-11.60
2018-03-02T01:20:39.566Z,-11.40
2018-03-02T01:23:06.475Z,-11.40
2018-03-02T01:25:33.330Z,-11.80
2018-03-02T01:28:01.581Z,-12.10
2018-03-02T01:30:28.455Z,-12.80
2018-03-02T01:32:55.746Z,-11.90
2018-03-02T01:35:23.212Z,-11.40
2018-03-02T01:37:50.338Z,-11.70
2018-03-02T01:40:17.215Z,-11.80
2018-03-02T01:42:44.219Z,-11.90
2018-03-02T01:45:11.369Z,-11.70
2018-03-02T01:47:38.369Z,-11.80
2018-03-02T01:50:05.221Z,-11.80
2018-03-02T01:52:32.130Z,-11.50
2018-03-02T01:54:58.897Z,-11.40
2018-03-02T01:57:25.382Z,-11.90
2018-03-02T01:59:51.830Z,-12.00
2018-03-02T02:02:18.641Z,-11.90
2018-03-02T02:04:46.090Z,-11.90
2018-03-02T02:09:40.605Z,-11.80
2018-03-02T02:12:07.867Z,-12.00
2018-03-02T02:14:34.710Z,-11.80
2018-03-02T02:17:02.301Z,-11.90
2018-03-02T02:19:29.904Z,-11.30
2018-03-02T02:21:56.844Z,-11.60
2018-03-02T02:26:52.318Z,-11.90
2018-03-02T02:31:53.649Z,-11.90
2018-03-02T02:34:21.601Z,-11.90
2018-03-02T02:36:48.427Z,-12.10
2018-03-02T02:39:15.012Z,-11.90
2018-03-02T02:41:42.194Z,-11.90
2018-03-02T02:44:09.293Z,-11.90
2018-03-02T02:46:36.683Z,-11.90
2018-03-02T02:49:04.018Z,-11.80
2018-03-02T02:51:31.212Z,-11.90
2018-03-02T02:53:58.426Z,-12.10
2018-03-02T02:56:25.308Z,-12.00
2018-03-02T02:58:52.782Z,-12.00
2018-03-02T03:01:19.668Z,-12.00
2018-03-02T03:03:46.741Z,-12.20
2018-03-02T03:06:13.606Z,-12.10
2018-03-02T03:08:40.489Z,-12.10
2018-03-02T03:11:07.350Z,-12.30
2018-03-02T03:13:34.186Z,-12.20
2018-03-02T03:16:02.081Z,-12.20
2018-03-02T03:18:28.648Z,-12.40
2018-03-02T03:20:55.978Z,-12.50
2018-03-02T03:23:23.943Z,-12.40
2018-03-02T03:25:52.072Z,-12.40
2018-03-02T03:28:19.645Z,-12.40
2018-03-02T03:33:16.106Z,-12.40
2018-03-02T03:35:43.711Z,-12.10
2018-03-02T03:38:10.216Z,-12.20
2018-03-02T03:40:37.912Z,-12.30
2018-03-02T03:43:05.091Z,-12.30
2018-03-02T03:45:33.434Z,-12.30
2018-03-02T03:48:00.272Z,-12.70
2018-03-02T03:52:56.263Z,-12.20
2018-03-02T03:55:23.558Z,-12.30
2018-03-02T03:57:51.253Z,-12.30
2018-03-02T04:00:18.141Z,-13.60
2018-03-02T04:02:46.232Z,-12.40
2018-03-02T04:05:12.789Z,-12.40
2018-03-02T04:07:40.518Z,-12.40
2018-03-02T04:10:07.737Z,-12.60
2018-03-02T04:12:34.589Z,-12.60
2018-03-02T04:17:29.278Z,-12.80
2018-03-02T04:19:56.613Z,-12.90
2018-03-02T04:22:24.202Z,-13.00
2018-03-02T04:24:52.217Z,-13.10
2018-03-02T04:27:19.043Z,-13.00
2018-03-02T04:29:47.494Z,-13.20
2018-03-02T04:32:14.394Z,-13.00
2018-03-02T04:34:42.455Z,-12.80
2018-03-02T04:37:08.893Z,-12.60
2018-03-02T04:39:35.750Z,-12.50
2018-03-02T04:42:02.828Z,-12.30
2018-03-02T04:44:30.263Z,-12.60
2018-03-02T04:46:58.354Z,-12.30
2018-03-02T04:49:24.817Z,-12.30
2018-03-02T04:51:52.137Z,-12.50
2018-03-02T04:54:18.525Z,-12.40
2018-03-02T04:56:45.003Z,-12.80
2018-03-02T04:59:12.572Z,-12.70
2018-03-02T05:01:39.132Z,-12.70
2018-03-02T05:04:05.541Z,-12.90
2018-03-02T05:06:32.677Z,-12.90
2018-03-02T05:08:59.143Z,-12.80
2018-03-02T05:11:26.518Z,-12.80
2018-03-02T05:13:53.818Z,-12.90
2018-03-02T05:16:23.224Z,-13.10
2018-03-02T05:18:51.095Z,-13.00
2018-03-02T05:21:18.308Z,-13.00
2018-03-02T05:26:13.729Z,-12.70
2018-03-02T05:31:12.286Z,-12.50
2018-03-02T05:33:39.482Z,-12.40
2018-03-02T05:38:36.445Z,-12.20
2018-03-02T05:41:03.025Z,-12.60
2018-03-02T05:43:29.716Z,-12.20
2018-03-02T05:45:57.763Z,-12.30
2018-03-02T05:48:28.828Z,-12.20
2018-03-02T05:53:24.767Z,-12.00
2018-03-02T05:58:21.149Z,-11.90
2018-03-02T06:00:48.282Z,-12.00
2018-03-02T06:08:14.688Z,-11.40
2018-03-02T06:10:42.064Z,-11.30
2018-03-02T06:13:08.574Z,-11.00
2018-03-02T06:18:03.216Z,-10.70
2018-03-02T06:20:31.313Z,-10.50
2018-03-02T06:22:57.858Z,-10.40
2018-03-02T06:25:25.122Z,-10.40
2018-03-02T06:27:52.733Z,-10.20
2018-03-02T06:30:19.253Z,-10.20
2018-03-02T06:35:14.195Z,-10.90
2018-03-02T06:37:42.766Z,-9.70
2018-03-02T06:40:09.227Z,-9.60
2018-03-02T06:42:36.813Z,-9.60
2018-03-02T06:47:32.385Z,-9.60
2018-03-02T06:50:00.860Z,-9.00
2018-03-02T06:52:27.797Z,-9.20
2018-03-02T06:54:54.372Z,-9.10
2018-03-02T06:57:21.599Z,-9.10
2018-03-02T07:04:44.926Z,-9.00
2018-03-02T07:07:12.456Z,-8.90
2018-03-02T07:09:39.601Z,-8.90
2018-03-02T07:12:06.865Z,-8.80
2018-03-02T07:14:33.344Z,-8.60
2018-03-02T07:17:00.559Z,-8.40
2018-03-02T07:19:27.187Z,-8.30
2018-03-02T07:21:54.477Z,-8.50
2018-03-02T07:24:21.806Z,-8.40
2018-03-02T07:26:49.310Z,-8.30
2018-03-02T07:29:16.922Z,-8.30
2018-03-02T07:31:43.872Z,-8.10
2018-03-02T07:34:12.056Z,-8.00
2018-03-02T07:36:38.960Z,-8.00
2018-03-02T07:39:06.118Z,-8.40
2018-03-02T07:41:34.166Z,-7.80
2018-03-02T07:46:29.526Z,-7.60
2018-03-02T07:48:57.525Z,-7.50
2018-03-02T07:51:25.039Z,-7.20
2018-03-02T07:56:20.444Z,-7.60
2018-03-02T07:58:47.282Z,-7.60
2018-03-02T08:01:14.234Z,-7.30
2018-03-02T08:03:40.865Z,-7.50
2018-03-02T08:06:15.225Z,-7.40
2018-03-02T08:08:42.573Z,-7.30
2018-03-02T08:11:09.386Z,-7.20
2018-03-02T08:16:05.959Z,-7.30
2018-03-02T08:18:32.589Z,-7.00
2018-03-02T08:21:00.651Z,-6.70
2018-03-02T08:28:25.859Z,-6.70
2018-03-02T08:30:53.021Z,-6.60
2018-03-02T08:33:19.874Z,-6.40
2018-03-02T08:35:47.885Z,-5.90
2018-03-02T08:38:14.920Z,-6.00
2018-03-02T08:40:41.907Z,-6.00
2018-03-02T08:45:37.399Z,-5.80
2018-03-02T08:48:04.313Z,-5.60
2018-03-02T08:53:00.737Z,-5.30
2018-03-02T08:55:28.449Z,-5.40
2018-03-02T08:57:55.139Z,-5.30
2018-03-02T09:00:23.366Z,-5.60
2018-03-02T09:02:50.561Z,-5.80
2018-03-02T09:05:18.535Z,-5.90
2018-03-02T09:07:45.827Z,-6.00
2018-03-02T09:10:13.933Z,-6.00
2018-03-02T09:12:41.921Z,-6.20
2018-03-02T09:15:09.432Z,-6.30
2018-03-02T09:17:36.283Z,-6.40
2018-03-02T09:20:03.496Z,-6.40
2018-03-02T09:22:31.631Z,-6.10
2018-03-02T09:27:26.579Z,-5.90
2018-03-02T09:32:22.822Z,-5.50
2018-03-02T09:37:17.690Z,-5.70
2018-03-02T09:39:44.575Z,-5.70
2018-03-02T09:42:12.618Z,-5.70
2018-03-02T09:44:40.717Z,-5.80
2018-03-02T09:52:05.299Z,-5.80
2018-03-02T09:59:31.763Z,-5.60
2018-03-02T10:04:27.212Z,-5.40
2018-03-02T10:06:54.152Z,-5.60
2018-03-02T10:09:21.380Z,-5.10
2018-03-02T10:11:47.873Z,-5.20
2018-03-02T10:14:14.369Z,-5.10
2018-03-02T10:16:42.347Z,-4.80
2018-03-02T10:19:08.843Z,-4.80
2018-03-02T10:21:36.822Z,-4.70
2018-03-02T10:24:04.810Z,-4.90
2018-03-02T10:26:32.778Z,-3.10
2018-03-02T10:29:00.194Z,-1.80
2018-03-02T10:31:26.676Z,-0.50
2018-03-02T10:36:24.486Z,0.90
2018-03-02T10:38:50.954Z,1.30
2018-03-02T10:41:17.598Z,1.80
2018-03-02T10:43:45.604Z,2.30
2018-03-02T10:46:12.228Z,3.40
2018-03-02T10:48:39.780Z,3.50
2018-03-02T10:51:06.695Z,2.40
2018-03-02T10:53:33.183Z,3.40
2018-03-02T10:56:00.112Z,2.80
2018-03-02T10:58:27.338Z,2.80
2018-03-02T11:00:55.028Z,3.00
2018-03-02T11:03:22.380Z,2.50
2018-03-02T11:08:17.884Z,2.40
2018-03-02T11:10:44.857Z,3.00
2018-03-02T11:13:12.246Z,3.20
2018-03-02T11:15:38.775Z,3.50
2018-03-02T11:20:36.888Z,3.80
2018-03-02T11:23:04.507Z,4.20
2018-03-02T11:25:30.973Z,4.00
2018-03-02T11:27:57.468Z,4.40
2018-03-02T11:37:50.469Z,5.30
2018-03-02T11:40:17.371Z,5.00
2018-03-02T11:42:44.054Z,5.10
2018-03-02T11:45:10.545Z,5.00
2018-03-02T11:50:06.316Z,4.40
2018-03-02T11:52:32.756Z,4.50
2018-03-02T11:54:59.279Z,5.40
2018-03-02T11:57:26.924Z,5.20
2018-03-02T11:59:53.480Z,5.00
2018-03-02T12:02:21.415Z,6.00
2018-03-02T12:04:47.976Z,5.70
2018-03-02T12:07:14.504Z,5.30
2018-03-02T12:09:41.116Z,4.30
2018-03-02T12:14:36.385Z,2.00
2018-03-02T12:19:31.540Z,0.60
2018-03-02T12:21:58.964Z,1.00
2018-03-02T12:24:25.399Z,1.20
2018-03-02T12:26:53.394Z,0.70
2018-03-02T12:29:19.876Z,0.40
2018-03-02T12:34:14.964Z,0.30
2018-03-02T12:36:42.427Z,0.30
2018-03-02T12:39:08.933Z,1.20
2018-03-02T12:41:36.491Z,2.00
2018-03-02T12:44:02.955Z,3.30
2018-03-02T12:46:29.432Z,3.60
2018-03-02T12:48:56.708Z,2.70
2018-03-02T12:51:23.685Z,2.50
2018-03-02T12:53:50.297Z,1.90
2018-03-02T12:56:19.786Z,0.60
2018-03-02T12:58:47.376Z,-0.20
2018-03-02T13:01:15.392Z,-0.40
2018-03-02T13:03:42.998Z,-0.50
2018-03-02T13:06:10.227Z,-0.60
2018-03-02T13:08:38.147Z,-0.50
2018-03-02T13:11:05.118Z,-0.30
2018-03-02T13:13:31.953Z,-0.60
2018-03-02T13:15:58.419Z,-0.60
2018-03-02T13:18:43.721Z,-0.20
2018-03-02T13:21:11.292Z,-0.10
2018-03-02T13:23:41.761Z,0.40
2018-03-02T13:26:08.388Z,0.40
2018-03-02T13:28:47.839Z,0.50
2018-03-02T13:31:15.487Z,1.80
2018-03-02T13:36:16.206Z,1.50
2018-03-02T13:38:43.518Z,1.10
2018-03-02T13:41:24.035Z,0.50
2018-03-02T13:43:50.508Z,0.10
2018-03-02T13:46:17.837Z,0.40
2018-03-02T13:48:57.169Z,-0.20
2018-03-02T13:51:23.709Z,-0.90
2018-03-02T13:53:50.569Z,-1.20
2018-03-02T13:56:29.234Z,-1.50
2018-03-02T13:58:55.769Z,-1.90
2018-03-02T14:01:23.120Z,-2.40
2018-03-02T14:04:03.141Z,-2.20
2018-03-02T14:08:58.390Z,-2.30
2018-03-02T14:11:25.953Z,-2.60
2018-03-02T14:13:53.147Z,-3.00
2018-03-02T14:16:19.686Z,-3.40
2018-03-02T14:18:46.814Z,-3.60
2018-03-02T14:21:14.513Z,-3.60
2018-03-02T14:23:41.389Z,-3.50
2018-03-02T14:26:08.685Z,-3.50
2018-03-02T14:28:35.991Z,-3.50
2018-03-02T14:31:02.859Z,-3.50
2018-03-02T14:33:29.440Z,-3.10
2018-03-02T14:35:56.988Z,-3.30
2018-03-02T14:38:24.161Z,-3.60
2018-03-02T14:40:51.407Z,-2.60
2018-03-02T14:45:46.856Z,-2.30
2018-03-02T14:50:42.181Z,-1.50
2018-03-02T14:53:08.663Z,-1.00
2018-03-02T14:58:04.741Z,0.30
2018-03-02T15:00:33.507Z,0.00
2018-03-02T15:03:00.118Z,-0.60
2018-03-02T15:07:56.777Z,-3.70
2018-03-02T15:10:23.840Z,-4.60
2018-03-02T15:12:50.705Z,-5.40
2018-03-02T15:15:17.576Z,-5.30
2018-03-02T15:17:45.245Z,-5.10
2018-03-02T15:20:12.786Z,-5.20
2018-03-02T15:22:40.043Z,-5.40
2018-03-02T15:25:07.280Z,-6.10
2018-03-02T15:27:34.674Z,-5.50
2018-03-02T15:32:30.576Z,-5.70
2018-03-02T15:34:59.761Z,-5.60
2018-03-02T15:37:26.478Z,-5.90
2018-03-02T15:39:53.749Z,-6.00
2018-03-02T15:42:21.030Z,-6.30
2018-03-02T15:44:47.856Z,-6.50
2018-03-02T15:47:15.092Z,-6.30
2018-03-02T15:49:42.312Z,-6.50
2018-03-02T15:52:09.186Z,-6.40
2018-03-02T15:54:36.166Z,-6.50
2018-03-02T15:59:31.193Z,-6.60
2018-03-02T16:01:59.373Z,-6.60
2018-03-02T16:04:28.564Z,-6.70
2018-03-02T16:06:55.501Z,-6.70
2018-03-02T16:09:22.568Z,-7.20
2018-03-02T16:11:50.530Z,-6.80
2018-03-02T16:16:45.927Z,-6.80
2018-03-02T16:19:13.203Z,-6.90
2018-03-02T16:21:41.190Z,-7.00
2018-03-02T16:24:08.431Z,-7.80
2018-03-02T16:26:35.679Z,-7.10
2018-03-02T16:29:02.935Z,-7.20
2018-03-02T16:31:29.536Z,-7.20
2018-03-02T16:33:55.993Z,-7.10
2018-03-02T16:36:22.862Z,-7.10
2018-03-02T16:38:50.858Z,-7.20
2018-03-02T16:43:45.740Z,-7.20
2018-03-02T16:46:12.691Z,-7.20
2018-03-02T16:48:39.513Z,-7.30
2018-03-02T16:51:06.346Z,-7.40
2018-03-02T16:56:03.039Z,-7.40
2018-03-02T16:58:29.988Z,-7.60
2018-03-02T17:00:57.019Z,-7.60
2018-03-02T17:03:25.150Z,-7.50
2018-03-02T17:08:21.590Z,-7.80
2018-03-02T17:13:16.975Z,-7.90
2018-03-02T17:15:45.097Z,-8.00
2018-03-02T17:20:40.490Z,-8.00
2018-03-02T17:23:08.919Z,-8.10
2018-03-02T17:25:35.937Z,-8.10
2018-03-02T17:28:03.197Z,-8.20
2018-03-02T17:30:29.789Z,-8.20
2018-03-02T17:32:57.869Z,-8.20
2018-03-02T17:35:26.742Z,-8.20
2018-03-02T17:37:54.745Z,-8.20
2018-03-02T17:40:22.495Z,-8.20
2018-03-02T17:42:50.128Z,-8.30
2018-03-02T17:45:17.499Z,-8.30
2018-03-02T17:47:45.123Z,-8.30
2018-03-02T17:50:11.722Z,-8.40
2018-03-02T17:52:38.780Z,-8.50
2018-03-02T17:55:06.533Z,-8.30
2018-03-02T17:57:33.192Z,-8.60
2018-03-02T18:00:00.175Z,-8.60
2018-03-02T18:02:27.013Z,-8.60
2018-03-02T18:04:53.642Z,-8.60
2018-03-02T18:07:20.554Z,-8.60
2018-03-02T18:09:47.849Z,-8.60
2018-03-02T18:12:14.363Z,-8.80
2018-03-02T18:14:41.677Z,-8.70
2018-03-02T18:17:09.074Z,-8.70
2018-03-02T18:19:35.656Z,-8.80
2018-03-02T18:22:03.232Z,-9.10
2018-03-02T18:24:29.702Z,-8.90
2018-03-02T18:26:56.804Z,-8.90
2018-03-02T18:31:51.949Z,-8.90
2018-03-02T18:34:18.813Z,-9.00
2018-03-02T18:36:46.463Z,-9.00
2018-03-02T18:39:14.100Z,-8.90
2018-03-02T18:44:12.516Z,-9.00
2018-03-02T18:46:39.522Z,-10.00
2018-03-02T18:49:06.451Z,-9.10
2018-03-02T18:51:33.402Z,-9.10
2018-03-02T18:54:00.660Z,-9.10
2018-03-02T18:56:27.239Z,-8.70
2018-03-02T18:58:54.243Z,-9.20
2018-03-02T19:01:21.067Z,-9.40
2018-03-02T19:06:17.625Z,-9.60
2018-03-02T19:08:44.164Z,-9.40
2018-03-02T19:11:11.824Z,-9.40
2018-03-02T19:13:38.669Z,-9.40
2018-03-02T19:18:33.801Z,-9.30
2018-03-02T19:21:01.172Z,-9.30
2018-03-02T19:25:56.007Z,-9.30
2018-03-02T19:28:22.621Z,-9.40
2018-03-02T19:30:49.250Z,-9.40
2018-03-02T19:33:15.807Z,-9.00
2018-03-02T19:35:43.445Z,-9.60
2018-03-02T19:38:09.990Z,-9.30
2018-03-02T19:40:37.005Z,-9.70
2018-03-02T19:43:03.663Z,-9.80
2018-03-02T19:45:31.427Z,-9.80
2018-03-02T19:47:58.380Z,-10.20
2018-03-02T19:52:55.097Z,-9.60
2018-03-02T19:55:22.082Z,-9.50
2018-03-02T19:57:48.727Z,-9.50
2018-03-02T20:02:44.454Z,-9.60
2018-03-02T20:05:10.955Z,-9.70
2018-03-02T20:07:38.178Z,-9.40
2018-03-02T20:10:05.118Z,-9.60
2018-03-02T20:12:32.165Z,-9.50
2018-03-02T20:14:59.073Z,-9.50
2018-03-02T20:17:25.577Z,-9.90
2018-03-02T20:22:20.763Z,-9.50
2018-03-02T20:24:47.340Z,-9.40
2018-03-02T20:27:14.836Z,-9.50
2018-03-02T20:29:41.704Z,-9.40
2018-03-02T20:32:08.623Z,-9.40
2018-03-02T20:34:36.081Z,-9.30
2018-03-02T20:39:31.270Z,-9.50
2018-03-02T20:41:57.786Z,-9.50
2018-03-02T20:44:24.995Z,-9.50
2018-03-02T20:46:52.003Z,-9.50
2018-03-02T20:49:19.386Z,-9.50
2018-03-02T20:51:46.002Z,-9.50
2018-03-02T20:54:12.563Z,-9.80
2018-03-02T20:56:39.753Z,-9.60
2018-03-02T20:59:06.664Z,-9.60
2018-03-02T21:01:33.331Z,-9.70
2018-03-02T21:04:00.294Z,-9.80
2018-03-02T21:06:27.573Z,-9.80
2018-03-02T21:08:54.795Z,-9.80
2018-03-02T21:11:21.362Z,-9.80
2018-03-02T21:13:48.442Z,-9.60
2018-03-02T21:16:16.135Z,-9.80
2018-03-02T21:21:12.113Z,-9.80
2018-03-02T21:23:38.959Z,-9.80
2018-03-02T21:26:05.852Z,-9.70
2018-03-02T21:28:32.767Z,-9.70
2018-03-02T21:33:32.442Z,-9.50
2018-03-02T21:35:55.185Z,-9.70
2018-03-02T21:38:22.842Z,-9.70
2018-03-02T21:40:49.315Z,-9.60
2018-03-02T21:43:16.518Z,-9.60
2018-03-02T21:45:43.029Z,-9.70
2018-03-02T21:48:09.907Z,-9.70
2018-03-02T21:50:36.437Z,-9.90
2018-03-02T21:53:03.340Z,-9.60
2018-03-02T21:55:31.034Z,-9.70
2018-03-02T21:57:57.980Z,-9.70
2018-03-02T22:00:24.482Z,-9.70
2018-03-02T22:02:51.471Z,-9.80
2018-03-02T22:05:18.770Z,-9.70
2018-03-02T22:07:45.269Z,-9.70
2018-03-02T22:10:12.703Z,-9.60
2018-03-02T22:12:39.559Z,-9.70
2018-03-02T22:15:06.126Z,-9.60
2018-03-02T22:17:32.613Z,-9.70
2018-03-02T22:19:59.441Z,-10.00
2018-03-02T22:22:26.684Z,-10.10
2018-03-02T22:24:54.490Z,-9.50
2018-03-02T22:27:21.254Z,-9.80
2018-03-02T22:29:48.737Z,-9.70
2018-03-02T22:32:15.725Z,-9.80
2018-03-02T22:34:42.558Z,-9.80
2018-03-02T22:37:09.158Z,-9.70
2018-03-02T22:39:36.057Z,-9.70
2018-03-02T22:42:02.877Z,-9.60
2018-03-02T22:44:29.297Z,-9.70
2018-03-02T22:46:55.966Z,-9.70
2018-03-02T22:49:23.214Z,-9.70
2018-03-02T22:51:50.103Z,-9.90
2018-03-02T22:54:16.981Z,-9.70
2018-03-02T22:56:44.168Z,-9.70
2018-03-02T22:59:11.011Z,-9.50
2018-03-02T23:01:37.906Z,-9.80
2018-03-02T23:04:04.780Z,-10.50
2018-03-02T23:06:31.939Z,-9.80
2018-03-02T23:08:59.950Z,-9.70
2018-03-02T23:11:29.076Z,-10.00
2018-03-02T23:13:56.720Z,-9.90
2018-03-02T23:16:23.911Z,-9.90
2018-03-02T23:18:50.388Z,-10.00
2018-03-02T23:21:17.562Z,-9.90
2018-03-02T23:23:44.164Z,-9.90
2018-03-02T23:26:11.006Z,-10.20
2018-03-02T23:28:37.464Z,-9.80
2018-03-02T23:31:04.365Z,-10.00
2018-03-02T23:33:32.052Z,-10.10
2018-03-02T23:35:58.592Z,-10.10
2018-03-02T23:38:25.482Z,-10.20
2018-03-02T23:40:52.700Z,-10.10
2018-03-02T23:43:19.561Z,-10.10
2018-03-02T23:45:47.189Z,-10.10
2018-03-02T23:48:14.354Z,-10.40
2018-03-02T23:50:41.238Z,-10.20
2018-03-02T23:53:08.136Z,-10.00
2018-03-02T23:55:35.337Z,-9.90
2018-03-02T23:58:02.517Z,-9.90
